Time;durP1;ratioP1;P1;durP2;ratioP2;P2;SDS_P1;SDS_P2;PMS_P1;PMS_P2;Temp;Humidity;BMP_temperature;BMP_pressure;BME280_temperature;BME280_humidity;BME280_pressure;Samples;Min_cycle;Max_cycle;Signal;HPM_P1;HPM_P2
2022/08/26 00:00:41;;;;;;;;;;;24.50;68.40;;;;;;5093908;28;20371;-73
2022/08/26 00:03:06;;;;;;;;;;;24.50;68.00;;;;;;5093668;28;19942;-67
2022/08/26 00:05:32;;;;;;;;;;;24.60;67.60;;;;;;5093548;28;19915;-74
2022/08/26 00:07:58;;;;;;;;;;;24.70;66.20;;;;;;5093377;28;20386;-68
2022/08/26 00:10:24;;;;;;;;;;;24.90;65.40;;;;;;5093780;28;19908;-72
2022/08/26 00:12:50;;;;;;;;;;;25.00;65.00;;;;;;5093747;28;19935;-71
2022/08/26 00:15:17;;;;;;;;;;;25.00;64.90;;;;;;5093477;28;19908;-69
2022/08/26 00:17:43;;;;;;;;;;;25.10;64.80;;;;;;5093550;28;19927;-68
2022/08/26 00:20:10;;;;;;;;;;;25.00;65.30;;;;;;5093439;28;19916;-67
2022/08/26 00:22:36;;;;;;;;;;;24.90;65.20;;;;;;5093515;28;19923;-69
2022/08/26 00:25:02;;;;;;;;;;;25.00;65.10;;;;;;5093433;28;19912;-68
2022/08/26 00:27:28;;;;;;;;;;;24.90;65.70;;;;;;5093403;28;19912;-64
2022/08/26 00:29:53;;;;;;;;;;;24.90;65.60;;;;;;5093285;28;20374;-67
2022/08/26 00:32:19;;;;;;;;;;;24.80;66.20;;;;;;5093577;28;19908;-66
2022/08/26 00:34:45;;;;;;;;;;;24.90;65.90;;;;;;5093675;28;19954;-69
2022/08/26 00:37:10;;;;;;;;;;;24.60;67.00;;;;;;5093313;28;19923;-72
2022/08/26 00:39:36;;;;;;;;;;;24.60;67.60;;;;;;5093467;28;19909;-70
2022/08/26 00:42:01;;;;;;;;;;;24.60;67.60;;;;;;5093307;28;19916;-71
2022/08/26 00:44:27;;;;;;;;;;;24.60;67.80;;;;;;5093250;28;19999;-71
2022/08/26 00:46:55;;;;;;;;;;;24.60;67.50;;;;;;5093253;28;19908;-68
2022/08/26 00:49:24;;;;;;;;;;;24.70;67.20;;;;;;5093183;28;19920;-72
2022/08/26 00:51:52;;;;;;;;;;;24.60;68.30;;;;;;5093039;28;19947;-73
2022/08/26 00:54:18;;;;;;;;;;;24.50;68.30;;;;;;5093369;28;19908;-70
2022/08/26 00:56:53;;;;;;;;;;;24.50;69.00;;;;;;5093276;28;19915;-72
2022/08/26 00:59:19;;;;;;;;;;;24.40;69.10;;;;;;5093170;28;20317;-72
2022/08/26 01:01:44;;;;;;;;;;;24.40;69.50;;;;;;5093029;28;20002;-71
2022/08/26 01:04:12;;;;;;;;;;;24.40;69.70;;;;;;5093039;28;19927;-66
2022/08/26 01:06:38;;;;;;;;;;;24.30;69.80;;;;;;5093193;28;19908;-65
2022/08/26 01:09:03;;;;;;;;;;;24.30;69.80;;;;;;5092958;28;19931;-66
2022/08/26 01:11:30;;;;;;;;;;;24.30;69.20;;;;;;5093166;28;19931;-65
2022/08/26 01:13:58;;;;;;;;;;;24.40;68.90;;;;;;5092987;28;19908;-68
2022/08/26 01:16:24;;;;;;;;;;;24.60;67.20;;;;;;5093072;28;19999;-64
2022/08/26 01:18:51;;;;;;;;;;;24.60;67.60;;;;;;5092651;28;19942;-70
2022/08/26 01:21:20;;;;;;;;;;;24.70;67.50;;;;;;5093869;28;20020;-71
2022/08/26 01:23:48;;;;;;;;;;;24.80;66.70;;;;;;5096859;28;19961;-70
2022/08/26 01:26:33;;;;;;;;;;;24.80;66.50;;;;;;5096644;28;20440;-68
2022/08/26 01:29:01;;;;;;;;;;;24.90;66.70;;;;;;5096633;28;19955;-71
2022/08/26 01:31:29;;;;;;;;;;;24.80;67.00;;;;;;5096565;28;19999;-68
2022/08/26 01:34:09;;;;;;;;;;;24.80;67.00;;;;;;5096585;28;19908;-72
2022/08/26 01:36:36;;;;;;;;;;;24.90;66.70;;;;;;5095131;28;19944;-71
2022/08/26 01:39:01;;;;;;;;;;;24.90;66.60;;;;;;5096323;28;19916;-72
2022/08/26 01:41:27;;;;;;;;;;;24.90;66.40;;;;;;5096878;28;20291;-70
2022/08/26 01:43:54;;;;;;;;;;;25.00;66.30;;;;;;5095218;28;20002;-73
2022/08/26 01:46:21;;;;;;;;;;;24.90;66.40;;;;;;5097064;28;19962;-72
2022/08/26 01:48:47;;;;;;;;;;;25.00;66.10;;;;;;5096939;28;19908;-73
2022/08/26 01:51:14;;;;;;;;;;;24.90;66.60;;;;;;5095531;28;20309;-70
2022/08/26 01:53:39;;;;;;;;;;;24.90;66.50;;;;;;5096825;28;19999;-73
2022/08/26 01:56:07;;;;;;;;;;;24.80;66.30;;;;;;5096421;28;20615;-73
2022/08/26 01:58:38;;;;;;;;;;;24.80;66.80;;;;;;5097038;28;19915;-73
2022/08/26 02:01:04;;;;;;;;;;;24.80;66.60;;;;;;5096570;28;20003;-72
2022/08/26 02:03:30;;;;;;;;;;;24.80;66.50;;;;;;5096089;28;19916;-73
2022/08/26 02:06:02;;;;;;;;;;;24.80;66.50;;;;;;5095869;28;19919;-73
2022/08/26 02:08:35;;;;;;;;;;;24.80;66.40;;;;;;5095968;28;19959;-72
2022/08/26 02:11:01;;;;;;;;;;;24.90;66.30;;;;;;5095882;28;19912;-71
2022/08/26 02:13:30;;;;;;;;;;;24.80;66.60;;;;;;5095573;28;20310;-73
2022/08/26 02:15:56;;;;;;;;;;;24.80;66.00;;;;;;5095817;28;20310;-70
2022/08/26 02:18:22;;;;;;;;;;;24.90;65.90;;;;;;5095562;28;19920;-74
2022/08/26 02:20:48;;;;;;;;;;;24.90;66.30;;;;;;5095540;28;19915;-69
2022/08/26 02:23:13;;;;;;;;;;;24.80;66.50;;;;;;5095258;28;19916;-73
2022/08/26 02:25:43;;;;;;;;;;;24.90;66.30;;;;;;5095710;28;19953;-73
2022/08/26 02:28:10;;;;;;;;;;;25.00;65.90;;;;;;5095395;28;20271;-72
2022/08/26 02:30:37;;;;;;;;;;;25.00;65.80;;;;;;5095470;28;20237;-72
2022/08/26 02:33:03;;;;;;;;;;;25.00;65.80;;;;;;5094192;28;19908;-69
2022/08/26 02:35:30;;;;;;;;;;;25.00;65.90;;;;;;5094964;28;20375;-72
2022/08/26 02:37:56;;;;;;;;;;;24.90;66.20;;;;;;5095232;28;19915;-71
2022/08/26 02:40:24;;;;;;;;;;;24.90;65.90;;;;;;5095066;28;19934;-70
2022/08/26 02:42:50;;;;;;;;;;;24.90;66.00;;;;;;5094967;28;20364;-72
2022/08/26 02:45:17;;;;;;;;;;;24.90;66.30;;;;;;5095197;28;19908;-71
2022/08/26 02:47:43;;;;;;;;;;;24.90;66.70;;;;;;5094905;28;19908;-71
2022/08/26 02:50:09;;;;;;;;;;;24.90;66.10;;;;;;5094948;28;19938;-71
2022/08/26 02:52:35;;;;;;;;;;;24.90;65.90;;;;;;5094805;28;20271;-71
2022/08/26 02:55:01;;;;;;;;;;;25.00;66.00;;;;;;5095051;28;19915;-73
2022/08/26 02:57:26;;;;;;;;;;;24.90;66.10;;;;;;5095207;28;19961;-73
2022/08/26 02:59:52;;;;;;;;;;;24.90;66.00;;;;;;5094814;28;19943;-72
2022/08/26 03:02:17;;;;;;;;;;;24.90;66.10;;;;;;5094710;28;19908;-72
2022/08/26 03:04:43;;;;;;;;;;;25.00;66.10;;;;;;5094430;28;19915;-68
2022/08/26 03:07:08;;;;;;;;;;;24.90;66.30;;;;;;5094458;28;19908;-67
2022/08/26 03:09:34;;;;;;;;;;;24.90;66.40;;;;;;5094716;28;19915;-73
2022/08/26 03:12:00;;;;;;;;;;;24.90;66.40;;;;;;5094702;28;19933;-71
2022/08/26 03:14:25;;;;;;;;;;;24.80;66.60;;;;;;5094753;28;20386;-71
2022/08/26 03:16:53;;;;;;;;;;;24.70;66.80;;;;;;5094344;28;19992;-73
2022/08/26 03:19:19;;;;;;;;;;;24.70;67.00;;;;;;5094107;28;19947;-68
2022/08/26 03:21:45;;;;;;;;;;;24.60;67.30;;;;;;5094398;28;19908;-73
2022/08/26 03:24:11;;;;;;;;;;;24.60;67.40;;;;;;5094375;28;20022;-70
2022/08/26 03:26:37;;;;;;;;;;;24.60;67.30;;;;;;5094179;28;19914;-74
2022/08/26 03:31:47;;;;;;;;;;;24.70;67.30;;;;;;5094724;28;19953;-73
2022/08/26 03:34:13;;;;;;;;;;;24.70;67.10;;;;;;5092917;28;19908;-70
2022/08/26 03:36:38;;;;;;;;;;;24.70;66.90;;;;;;5094503;28;19908;-66
2022/08/26 03:39:04;;;;;;;;;;;24.80;66.80;;;;;;5094274;28;19999;-72
2022/08/26 03:41:31;;;;;;;;;;;24.60;67.40;;;;;;5094284;28;19908;-71
2022/08/26 03:43:57;;;;;;;;;;;24.60;67.20;;;;;;5093889;28;19939;-72
2022/08/26 03:46:22;;;;;;;;;;;24.70;67.10;;;;;;5093892;28;20295;-70
2022/08/26 03:48:48;;;;;;;;;;;24.60;67.60;;;;;;5093973;28;19908;-68
2022/08/26 03:51:16;;;;;;;;;;;24.50;67.50;;;;;;5094173;28;19934;-65
2022/08/26 03:53:41;;;;;;;;;;;24.50;67.90;;;;;;5093567;28;19961;-72
2022/08/26 03:56:07;;;;;;;;;;;24.50;67.70;;;;;;5094294;28;19909;-69
2022/08/26 03:58:32;;;;;;;;;;;24.60;67.30;;;;;;5093828;28;19909;-71
2022/08/26 04:00:58;;;;;;;;;;;24.70;67.20;;;;;;5093862;28;19955;-66
2022/08/26 04:06:08;;;;;;;;;;;24.50;67.80;;;;;;5093875;28;19971;-66
2022/08/26 04:08:34;;;;;;;;;;;24.50;67.80;;;;;;5093946;28;20398;-70
2022/08/26 04:11:00;;;;;;;;;;;24.50;67.90;;;;;;5093862;28;19908;-72
2022/08/26 04:13:26;;;;;;;;;;;24.60;67.60;;;;;;5094289;28;20369;-73
2022/08/26 04:15:52;;;;;;;;;;;24.60;67.50;;;;;;5093998;28;19915;-72
2022/08/26 04:18:17;;;;;;;;;;;24.50;67.70;;;;;;5093562;28;19923;-72
2022/08/26 04:20:43;;;;;;;;;;;24.60;67.80;;;;;;5093458;28;19912;-69
2022/08/26 04:23:08;;;;;;;;;;;24.60;67.60;;;;;;5093500;28;19979;-65
2022/08/26 04:25:34;;;;;;;;;;;24.50;67.90;;;;;;5093438;28;19908;-71
2022/08/26 04:28:00;;;;;;;;;;;24.50;68.20;;;;;;5093350;28;19993;-72
2022/08/26 04:30:25;;;;;;;;;;;24.50;68.30;;;;;;5093658;28;19908;-73
2022/08/26 04:32:51;;;;;;;;;;;24.50;68.30;;;;;;5093481;28;20403;-72
2022/08/26 04:35:16;;;;;;;;;;;24.60;68.10;;;;;;5093714;28;19912;-72
2022/08/26 04:37:42;;;;;;;;;;;24.40;68.60;;;;;;5093544;28;20281;-72
2022/08/26 04:40:08;;;;;;;;;;;24.40;68.50;;;;;;5093311;28;20318;-67
2022/08/26 04:42:34;;;;;;;;;;;24.40;68.90;;;;;;5093261;28;19923;-72
2022/08/26 04:45:00;;;;;;;;;;;24.40;69.10;;;;;;5093336;28;20248;-71
2022/08/26 04:47:26;;;;;;;;;;;24.30;68.80;;;;;;5093238;28;20272;-72
2022/08/26 04:49:55;;;;;;;;;;;24.40;68.80;;;;;;5093489;28;19909;-70
2022/08/26 04:52:20;;;;;;;;;;;24.50;68.90;;;;;;5093552;28;19918;-72
2022/08/26 04:54:46;;;;;;;;;;;24.40;68.70;;;;;;5093496;28;19910;-72
2022/08/26 04:57:11;;;;;;;;;;;24.40;68.60;;;;;;5096947;28;19919;-70
2022/08/26 04:59:37;;;;;;;;;;;24.50;68.50;;;;;;5097190;28;19908;-70
2022/08/26 05:02:03;;;;;;;;;;;24.50;68.40;;;;;;5097890;28;20244;-70
2022/08/26 05:04:29;;;;;;;;;;;24.40;68.50;;;;;;5097033;28;19923;-66
2022/08/26 05:06:54;;;;;;;;;;;24.50;69.00;;;;;;5097121;28;19977;-70
2022/08/26 05:09:20;;;;;;;;;;;24.60;68.30;;;;;;5097059;28;20119;-71
2022/08/26 05:11:46;;;;;;;;;;;24.50;68.40;;;;;;5097078;28;19908;-70
2022/08/26 05:14:12;;;;;;;;;;;24.60;68.20;;;;;;5097099;28;19919;-71
2022/08/26 05:16:37;;;;;;;;;;;24.60;67.80;;;;;;5097044;28;19908;-71
2022/08/26 05:19:04;;;;;;;;;;;24.60;68.40;;;;;;5096598;28;20390;-72
2022/08/26 05:21:29;;;;;;;;;;;24.60;67.90;;;;;;5096837;28;19965;-71
2022/08/26 05:23:55;;;;;;;;;;;24.40;69.50;;;;;;5096602;28;20367;-69
2022/08/26 05:26:22;;;;;;;;;;;24.50;68.90;;;;;;5096510;28;19973;-71
2022/08/26 05:28:48;;;;;;;;;;;24.50;68.70;;;;;;5096861;28;19909;-71
2022/08/26 05:31:15;;;;;;;;;;;24.40;69.20;;;;;;5096676;28;19962;-68
2022/08/26 05:33:40;;;;;;;;;;;24.50;69.00;;;;;;5096760;28;19993;-72
2022/08/26 05:36:08;;;;;;;;;;;24.60;68.70;;;;;;5096866;28;20359;-71
2022/08/26 05:38:34;;;;;;;;;;;24.50;68.90;;;;;;5096839;28;20268;-68
2022/08/26 05:40:59;;;;;;;;;;;24.60;68.80;;;;;;5096451;28;19912;-70
2022/08/26 05:43:25;;;;;;;;;;;24.60;68.70;;;;;;5096759;28;19963;-70
2022/08/26 05:45:50;;;;;;;;;;;24.60;69.10;;;;;;5096908;28;19912;-70
2022/08/26 05:48:17;;;;;;;;;;;24.60;68.80;;;;;;5096894;28;20385;-74
2022/08/26 05:50:44;;;;;;;;;;;24.60;69.20;;;;;;5099481;28;19908;-74
2022/08/26 05:53:10;;;;;;;;;;;24.60;69.30;;;;;;5102947;28;19908;-71
2022/08/26 05:55:46;;;;;;;;;;;24.70;69.10;;;;;;5102872;28;19954;-71
2022/08/26 05:58:12;;;;;;;;;;;24.60;69.50;;;;;;5101023;28;19955;-71
2022/08/26 06:00:38;;;;;;;;;;;24.70;69.00;;;;;;5096714;28;19959;-71
2022/08/26 06:03:04;;;;;;;;;;;24.80;68.60;;;;;;5096223;28;20287;-71
2022/08/26 06:05:29;;;;;;;;;;;24.80;68.50;;;;;;5096326;28;19916;-71
2022/08/26 06:08:17;;;;;;;;;;;25.10;68.10;;;;;;5095692;28;19961;-73
2022/08/26 06:10:44;;;;;;;;;;;25.50;67.10;;;;;;5095596;28;19946;-73
2022/08/26 06:13:10;;;;;;;;;;;25.90;65.60;;;;;;5096043;28;19970;-72
2022/08/26 06:15:40;;;;;;;;;;;26.20;64.70;;;;;;5096112;28;19963;-74
2022/08/26 06:18:06;;;;;;;;;;;26.30;63.40;;;;;;5095464;28;19927;-72
2022/08/26 06:20:32;;;;;;;;;;;26.40;63.40;;;;;;5095325;28;19912;-66
2022/08/26 06:25:42;;;;;;;;;;;26.70;62.10;;;;;;5096084;28;19915;-67
2022/08/26 06:28:08;;;;;;;;;;;27.00;61.60;;;;;;5095735;28;19908;-71
2022/08/26 06:30:37;;;;;;;;;;;27.30;60.60;;;;;;5095606;28;19908;-70
2022/08/26 06:33:03;;;;;;;;;;;27.40;60.50;;;;;;5095649;28;20319;-70
2022/08/26 06:35:28;;;;;;;;;;;27.70;59.70;;;;;;5095735;28;19915;-71
2022/08/26 06:37:54;;;;;;;;;;;27.80;59.40;;;;;;5095403;28;20351;-72
2022/08/26 06:40:22;;;;;;;;;;;28.00;59.10;;;;;;5095378;28;19908;-70
2022/08/26 06:42:47;;;;;;;;;;;28.10;58.20;;;;;;5095600;28;19923;-71
2022/08/26 06:45:13;;;;;;;;;;;28.20;58.40;;;;;;5095277;28;19908;-70
2022/08/26 06:47:38;;;;;;;;;;;28.30;58.10;;;;;;5095214;28;19955;-72
2022/08/26 06:50:04;;;;;;;;;;;28.40;57.50;;;;;;5095331;28;19942;-70
2022/08/26 06:52:30;;;;;;;;;;;28.50;57.40;;;;;;5095168;28;19920;-70
2022/08/26 06:54:55;;;;;;;;;;;28.50;57.30;;;;;;5095545;28;19991;-72
2022/08/26 06:57:21;;;;;;;;;;;28.70;57.10;;;;;;5095201;28;19923;-69
2022/08/26 06:59:46;;;;;;;;;;;28.90;56.70;;;;;;5095013;28;19934;-71
2022/08/26 07:02:12;;;;;;;;;;;28.80;56.70;;;;;;5094759;28;19937;-71
2022/08/26 07:04:38;;;;;;;;;;;28.50;56.90;;;;;;5095181;28;19915;-73
2022/08/26 07:07:04;;;;;;;;;;;28.50;57.10;;;;;;5095125;28;19908;-72
2022/08/26 07:09:31;;;;;;;;;;;28.60;57.10;;;;;;5094972;28;19996;-71
2022/08/26 07:11:57;;;;;;;;;;;28.60;56.90;;;;;;5095083;28;19908;-70
2022/08/26 07:14:24;;;;;;;;;;;28.50;57.20;;;;;;5094845;28;19908;-71
2022/08/26 07:16:50;;;;;;;;;;;28.50;56.90;;;;;;5094670;28;20001;-72
2022/08/26 07:19:16;;;;;;;;;;;28.40;57.00;;;;;;5094108;28;19974;-71
2022/08/26 07:21:41;;;;;;;;;;;28.40;57.00;;;;;;5095080;28;19912;-67
2022/08/26 07:24:08;;;;;;;;;;;28.40;56.90;;;;;;5093494;28;19916;-68
2022/08/26 07:26:34;;;;;;;;;;;28.40;57.30;;;;;;5094877;28;19909;-72
2022/08/26 07:28:59;;;;;;;;;;;28.60;56.90;;;;;;5094495;28;19908;-71
2022/08/26 07:31:26;;;;;;;;;;;28.70;56.50;;;;;;5094453;28;19951;-72
2022/08/26 07:33:52;;;;;;;;;;;28.70;56.50;;;;;;5094595;28;19955;-69
2022/08/26 07:36:18;;;;;;;;;;;28.60;56.70;;;;;;5094612;28;19915;-71
2022/08/26 07:38:44;;;;;;;;;;;28.70;56.30;;;;;;5096034;28;19927;-72
2022/08/26 07:41:11;;;;;;;;;;;28.60;57.00;;;;;;5108763;28;19936;-70
2022/08/26 07:43:37;;;;;;;;;;;28.70;56.50;;;;;;5111176;28;19983;-68
2022/08/26 07:46:03;;;;;;;;;;;28.90;56.20;;;;;;5108767;28;19912;-72
2022/08/26 07:48:30;;;;;;;;;;;29.00;55.50;;;;;;5104122;28;19919;-71
2022/08/26 07:50:55;;;;;;;;;;;29.10;55.70;;;;;;5100789;28;19953;-73
2022/08/26 07:53:21;;;;;;;;;;;29.00;55.30;;;;;;5097208;28;19912;-71
2022/08/26 07:55:48;;;;;;;;;;;28.90;55.40;;;;;;5094342;28;19908;-67
2022/08/26 07:58:13;;;;;;;;;;;28.70;56.40;;;;;;5093874;28;19914;-71
2022/08/26 08:00:39;;;;;;;;;;;28.90;56.10;;;;;;5093904;28;20423;-70
2022/08/26 08:03:05;;;;;;;;;;;29.10;55.90;;;;;;5092310;28;19939;-72
2022/08/26 08:05:31;;;;;;;;;;;29.20;55.80;;;;;;5094021;28;19908;-74
2022/08/26 08:08:01;;;;;;;;;;;29.30;55.20;;;;;;5093584;28;20368;-66
2022/08/26 08:10:27;;;;;;;;;;;29.50;54.80;;;;;;5093746;28;19915;-64
2022/08/26 08:12:53;;;;;;;;;;;29.60;54.40;;;;;;5093668;28;20352;-73
2022/08/26 08:15:20;;;;;;;;;;;29.60;54.10;;;;;;5093488;28;19908;-72
2022/08/26 08:17:46;;;;;;;;;;;29.60;53.80;;;;;;5093677;28;19927;-73
2022/08/26 08:20:12;;;;;;;;;;;29.40;54.50;;;;;;5093604;28;20011;-70
2022/08/26 08:22:38;;;;;;;;;;;29.40;54.20;;;;;;5093600;28;19956;-73
2022/08/26 08:25:06;;;;;;;;;;;29.40;54.30;;;;;;5096036;28;20257;-73
2022/08/26 08:27:32;;;;;;;;;;;29.50;53.90;;;;;;5097651;28;19934;-72
2022/08/26 08:29:58;;;;;;;;;;;29.30;53.70;;;;;;5098204;28;20371;-70
2022/08/26 08:32:23;;;;;;;;;;;29.30;54.30;;;;;;5099619;28;19915;-72
2022/08/26 08:34:49;;;;;;;;;;;29.40;54.00;;;;;;5098137;28;19940;-73
2022/08/26 08:37:15;;;;;;;;;;;29.50;54.10;;;;;;5097736;28;19908;-71
2022/08/26 08:39:40;;;;;;;;;;;29.60;54.80;;;;;;5097495;28;20467;-73
2022/08/26 08:42:09;;;;;;;;;;;29.70;53.20;;;;;;5097364;28;19908;-73
2022/08/26 08:44:37;;;;;;;;;;;29.70;52.70;;;;;;5097333;28;19916;-74
2022/08/26 08:47:05;;;;;;;;;;;29.70;53.40;;;;;;5097798;28;20264;-71
2022/08/26 08:49:31;;;;;;;;;;;29.60;53.00;;;;;;5097295;28;19984;-69
2022/08/26 08:52:03;;;;;;;;;;;29.70;53.50;;;;;;5097473;28;19955;-67
2022/08/26 08:54:29;;;;;;;;;;;29.70;53.40;;;;;;5097080;28;19912;-69
2022/08/26 08:57:01;;;;;;;;;;;29.80;53.30;;;;;;5097610;28;19908;-69
2022/08/26 08:59:30;;;;;;;;;;;30.00;53.00;;;;;;5097024;28;20003;-72
2022/08/26 09:02:13;;;;;;;;;;;29.90;52.80;;;;;;5095786;28;20282;-70
2022/08/26 09:04:41;;;;;;;;;;;30.00;52.60;;;;;;5097266;28;19916;-67
2022/08/26 09:07:11;;;;;;;;;;;30.00;52.90;;;;;;5097073;28;19908;-66
2022/08/26 09:10:01;;;;;;;;;;;30.00;53.10;;;;;;5096768;28;19961;-65
2022/08/26 09:12:30;;;;;;;;;;;30.10;53.00;;;;;;5077623;28;19908;-68
2022/08/26 09:15:00;;;;;;;;;;;30.20;53.10;;;;;;5097191;28;19915;-68
2022/08/26 09:17:26;;;;;;;;;;;29.90;52.40;;;;;;5096690;28;19963;-67
2022/08/26 09:19:53;;;;;;;;;;;29.80;53.40;;;;;;5096529;28;19912;-67
2022/08/26 09:22:34;;;;;;;;;;;30.00;54.40;;;;;;5096690;28;19908;-72
2022/08/26 09:25:00;;;;;;;;;;;30.20;52.90;;;;;;5096431;28;20436;-69
2022/08/26 09:27:40;;;;;;;;;;;30.50;51.70;;;;;;5096846;28;19951;-69
2022/08/26 09:30:06;;;;;;;;;;;30.60;50.20;;;;;;5096241;28;20276;-68
2022/08/26 09:32:33;;;;;;;;;;;30.50;50.00;;;;;;5096487;28;20372;-68
2022/08/26 09:35:05;;;;;;;;;;;30.60;50.20;;;;;;5096463;28;19914;-72
2022/08/26 09:37:41;;;;;;;;;;;30.50;50.50;;;;;;5096345;28;20387;-69
2022/08/26 09:40:14;;;;;;;;;;;30.50;50.70;;;;;;5096161;28;19908;-71
2022/08/26 09:42:40;;;;;;;;;;;30.70;51.00;;;;;;5095411;28;19920;-69
2022/08/26 09:45:09;;;;;;;;;;;30.80;50.40;;;;;;5096100;28;19915;-70
2022/08/26 09:47:43;;;;;;;;;;;30.80;48.50;;;;;;5096282;28;19912;-73
2022/08/26 09:50:18;;;;;;;;;;;30.70;49.40;;;;;;5096361;28;20280;-70
2022/08/26 09:52:43;;;;;;;;;;;30.40;48.40;;;;;;5096104;28;19908;-70
2022/08/26 09:55:13;;;;;;;;;;;30.30;48.70;;;;;;5096027;28;19912;-71
2022/08/26 09:57:49;;;;;;;;;;;30.30;49.20;;;;;;5096212;28;20313;-70
2022/08/26 10:00:26;;;;;;;;;;;30.20;49.70;;;;;;5096250;28;19915;-73
2022/08/26 10:02:52;;;;;;;;;;;30.20;50.30;;;;;;5095807;28;19917;-68
2022/08/26 10:05:27;;;;;;;;;;;30.40;50.50;;;;;;5095895;28;19908;-72
2022/08/26 10:07:52;;;;;;;;;;;30.50;49.50;;;;;;5095993;28;19912;-68
2022/08/26 10:10:18;;;;;;;;;;;30.70;48.80;;;;;;5095935;28;19915;-71
2022/08/26 10:12:48;;;;;;;;;;;30.70;47.40;;;;;;5095782;28;19908;-72
2022/08/26 10:15:14;;;;;;;;;;;30.80;47.10;;;;;;5096343;28;19908;-72
2022/08/26 10:17:50;;;;;;;;;;;30.80;47.70;;;;;;5095964;28;19969;-71
2022/08/26 10:20:18;;;;;;;;;;;30.80;46.20;;;;;;5096258;28;19909;-72
2022/08/26 10:23:02;;;;;;;;;;;30.80;47.10;;;;;;5096574;28;19916;-69
2022/08/26 10:25:30;;;;;;;;;;;31.00;47.10;;;;;;5096304;28;19962;-73
2022/08/26 10:28:05;;;;;;;;;;;31.00;47.00;;;;;;5094928;28;19908;-71
2022/08/26 10:30:36;;;;;;;;;;;31.10;47.90;;;;;;5095805;28;20420;-72
2022/08/26 10:33:04;;;;;;;;;;;31.10;46.40;;;;;;5095982;28;19912;-71
2022/08/26 10:35:31;;;;;;;;;;;31.10;46.40;;;;;;5096012;28;19908;-70
2022/08/26 10:37:59;;;;;;;;;;;31.30;46.10;;;;;;5095990;28;19909;-71
2022/08/26 10:40:30;;;;;;;;;;;31.40;45.70;;;;;;5095569;28;19965;-69
2022/08/26 10:43:02;;;;;;;;;;;31.40;46.20;;;;;;5095757;28;20310;-67
2022/08/26 10:45:28;;;;;;;;;;;31.50;46.90;;;;;;5094311;28;19908;-70
2022/08/26 10:47:57;;;;;;;;;;;31.20;45.00;;;;;;5095766;28;19947;-65
2022/08/26 10:50:25;;;;;;;;;;;31.30;45.00;;;;;;5095384;28;19908;-68
2022/08/26 10:52:56;;;;;;;;;;;31.40;46.20;;;;;;5094515;28;19919;-67
2022/08/26 10:55:36;;;;;;;;;;;31.40;46.40;;;;;;5095329;28;19912;-66
2022/08/26 10:58:09;;;;;;;;;;;31.60;46.40;;;;;;5095110;28;19908;-69
2022/08/26 11:03:28;;;;;;;;;;;31.10;47.30;;;;;;5095339;28;20041;-68
2022/08/26 11:06:12;;;;;;;;;;;30.90;47.70;;;;;;5095146;28;19915;-67
2022/08/26 11:08:44;;;;;;;;;;;31.00;47.70;;;;;;5095141;28;20473;-67
2022/08/26 11:11:09;;;;;;;;;;;31.20;48.90;;;;;;5095128;28;19916;-68
2022/08/26 11:14:04;;;;;;;;;;;31.20;47.30;;;;;;5095381;28;19908;-66
2022/08/26 11:16:38;;;;;;;;;;;31.10;47.50;;;;;;5089181;28;19911;-68
2022/08/26 11:19:05;;;;;;;;;;;31.00;48.50;;;;;;5100622;28;20375;-70
2022/08/26 11:21:44;;;;;;;;;;;31.10;47.70;;;;;;5101098;28;19912;-67
2022/08/26 11:24:30;;;;;;;;;;;31.20;48.00;;;;;;5097905;28;20019;-68
2022/08/26 11:26:56;;;;;;;;;;;31.40;47.00;;;;;;5096712;28;19926;-69
2022/08/26 11:29:40;;;;;;;;;;;31.50;46.70;;;;;;5097260;28;20021;-72
2022/08/26 11:32:21;;;;;;;;;;;31.50;46.70;;;;;;5095259;28;19915;-75
2022/08/26 11:34:53;;;;;;;;;;;31.20;46.80;;;;;;5094561;28;19908;-71
2022/08/26 11:37:20;;;;;;;;;;;30.80;50.10;;;;;;5094778;28;20260;-67
2022/08/26 11:39:47;;;;;;;;;;;30.60;50.70;;;;;;5094592;28;20325;-67
2022/08/26 11:42:33;;;;;;;;;;;30.60;51.20;;;;;;5094536;28;19914;-66
2022/08/26 11:45:00;;;;;;;;;;;30.70;50.80;;;;;;5093930;28;19924;-67
2022/08/26 11:47:27;;;;;;;;;;;30.70;51.30;;;;;;5094371;28;19912;-67
2022/08/26 11:50:06;;;;;;;;;;;30.30;52.70;;;;;;5094516;28;20334;-67
2022/08/26 11:52:32;;;;;;;;;;;30.20;53.30;;;;;;5094311;28;20003;-67
2022/08/26 11:54:58;;;;;;;;;;;30.30;53.20;;;;;;5094623;28;19951;-67
2022/08/26 11:57:23;;;;;;;;;;;30.50;53.70;;;;;;5094249;28;19940;-67
2022/08/26 11:59:49;;;;;;;;;;;30.40;53.70;;;;;;5094457;28;19915;-67
2022/08/26 12:02:15;;;;;;;;;;;30.40;53.40;;;;;;5094116;28;19912;-66
2022/08/26 12:04:45;;;;;;;;;;;30.60;54.10;;;;;;5093818;28;20007;-67
2022/08/26 12:07:11;;;;;;;;;;;30.80;53.40;;;;;;5094358;28;19908;-67
2022/08/26 12:09:49;;;;;;;;;;;30.90;52.40;;;;;;5093968;28;20345;-67
2022/08/26 12:12:16;;;;;;;;;;;30.50;53.30;;;;;;5094354;28;20025;-66
2022/08/26 12:14:41;;;;;;;;;;;30.40;54.60;;;;;;5094372;28;19935;-67
2022/08/26 12:17:18;;;;;;;;;;;30.60;54.50;;;;;;5094345;28;20362;-68
2022/08/26 12:19:44;;;;;;;;;;;30.90;53.50;;;;;;5094347;28;19916;-67
2022/08/26 12:22:29;;;;;;;;;;;31.00;52.20;;;;;;5104927;28;19908;-66
2022/08/26 12:24:57;;;;;;;;;;;31.00;53.20;;;;;;5109364;28;19951;-68
2022/08/26 12:27:22;;;;;;;;;;;31.10;53.00;;;;;;5108755;28;19908;-68
2022/08/26 12:30:02;;;;;;;;;;;31.50;52.30;;;;;;5101869;28;19999;-66
2022/08/26 12:32:30;;;;;;;;;;;31.70;51.30;;;;;;5103838;28;19908;-68
2022/08/26 12:34:56;;;;;;;;;;;31.60;50.70;;;;;;5099125;28;19908;-66
2022/08/26 12:37:22;;;;;;;;;;;31.60;51.30;;;;;;5095015;28;20307;-69
2022/08/26 12:39:48;;;;;;;;;;;31.60;51.10;;;;;;5094366;28;19912;-69
2022/08/26 12:42:16;;;;;;;;;;;31.90;50.40;;;;;;5093823;28;19934;-66
2022/08/26 12:44:43;;;;;;;;;;;31.80;49.70;;;;;;5093806;28;20005;-68
2022/08/26 12:47:21;;;;;;;;;;;31.80;49.70;;;;;;5093812;28;19916;-66
2022/08/26 12:49:48;;;;;;;;;;;31.80;50.50;;;;;;5093836;28;19908;-68
2022/08/26 12:52:32;;;;;;;;;;;32.10;50.40;;;;;;5093398;28;19994;-71
2022/08/26 12:54:59;;;;;;;;;;;32.10;49.40;;;;;;5092143;28;20359;-67
2022/08/26 12:57:26;;;;;;;;;;;32.00;50.20;;;;;;5093846;28;19952;-72
2022/08/26 12:59:52;;;;;;;;;;;31.60;51.20;;;;;;5093345;28;20372;-72
2022/08/26 13:02:34;;;;;;;;;;;31.50;50.90;;;;;;5093734;28;19954;-66
2022/08/26 13:04:59;;;;;;;;;;;30.70;53.40;;;;;;5093844;28;20346;-72
2022/08/26 13:07:25;;;;;;;;;;;31.10;53.80;;;;;;5093795;28;20002;-67
2022/08/26 13:09:53;;;;;;;;;;;31.30;53.20;;;;;;5093327;28;19935;-69
2022/08/26 13:12:39;;;;;;;;;;;31.20;52.10;;;;;;5093524;28;19908;-67
2022/08/26 13:15:06;;;;;;;;;;;31.30;51.80;;;;;;5093950;28;19954;-67
2022/08/26 13:17:33;;;;;;;;;;;31.40;52.10;;;;;;5096030;28;19920;-67
2022/08/26 13:20:00;;;;;;;;;;;31.60;51.10;;;;;;5096971;28;19912;-66
2022/08/26 13:22:26;;;;;;;;;;;31.90;50.50;;;;;;5097136;28;19912;-66
2022/08/26 13:24:53;;;;;;;;;;;31.90;50.10;;;;;;5097050;28;20390;-67
2022/08/26 13:27:20;;;;;;;;;;;32.10;50.60;;;;;;5097180;28;20352;-67
2022/08/26 13:29:46;;;;;;;;;;;32.00;49.10;;;;;;5096744;28;19908;-66
2022/08/26 13:32:12;;;;;;;;;;;31.80;49.20;;;;;;5096740;28;19957;-68
2022/08/26 13:34:38;;;;;;;;;;;31.70;50.20;;;;;;5097075;28;20282;-67
2022/08/26 13:37:04;;;;;;;;;;;31.70;51.30;;;;;;5096937;28;19908;-66
2022/08/26 13:39:29;;;;;;;;;;;31.50;50.90;;;;;;5095578;28;19995;-66
2022/08/26 13:41:55;;;;;;;;;;;31.70;50.70;;;;;;5096666;28;19914;-71
2022/08/26 13:44:20;;;;;;;;;;;31.50;51.00;;;;;;5096745;28;19939;-68
2022/08/26 13:46:46;;;;;;;;;;;31.10;50.80;;;;;;5096800;28;19943;-68
2022/08/26 13:49:12;;;;;;;;;;;31.00;51.90;;;;;;5096708;28;19912;-67
2022/08/26 13:51:38;;;;;;;;;;;30.90;52.30;;;;;;5096525;28;19969;-67
2022/08/26 13:54:03;;;;;;;;;;;31.10;52.10;;;;;;5096491;28;19908;-72
2022/08/26 13:56:29;;;;;;;;;;;31.40;51.50;;;;;;5096317;28;19933;-72
2022/08/26 13:58:58;;;;;;;;;;;31.30;52.10;;;;;;5096063;28;20392;-68
2022/08/26 14:01:24;;;;;;;;;;;31.30;52.20;;;;;;5096496;28;19911;-67
2022/08/26 14:03:50;;;;;;;;;;;31.50;52.30;;;;;;5096368;28;19920;-69
2022/08/26 14:06:16;;;;;;;;;;;31.60;51.40;;;;;;5096474;28;20050;-68
2022/08/26 14:08:42;;;;;;;;;;;31.00;51.10;;;;;;5096117;28;20410;-67
2022/08/26 14:11:07;;;;;;;;;;;30.80;52.00;;;;;;5096041;28;19916;-66
2022/08/26 14:13:33;;;;;;;;;;;30.50;52.70;;;;;;5096069;28;19923;-66
2022/08/26 14:16:00;;;;;;;;;;;30.80;52.80;;;;;;5096337;28;19915;-67
2022/08/26 14:18:30;;;;;;;;;;;30.90;52.60;;;;;;5095796;28;19920;-68
2022/08/26 14:20:56;;;;;;;;;;;30.60;51.40;;;;;;5095682;28;19908;-67
2022/08/26 14:23:22;;;;;;;;;;;30.90;51.70;;;;;;5096153;28;19919;-67
2022/08/26 14:25:48;;;;;;;;;;;31.20;51.30;;;;;;5096010;28;19908;-67
2022/08/26 14:28:13;;;;;;;;;;;31.30;50.60;;;;;;5095840;28;20260;-67
2022/08/26 14:30:40;;;;;;;;;;;31.40;49.70;;;;;;5095930;28;19908;-68